Date,TemperatureHighF,TemperatureAvgF,TemperatureLowF,DewpointHighF,DewpointAvgF,DewpointLowF,HumidityHigh,HumidityAvg,HumidityLow,PressureMaxIn,PressureMinIn,WindSpeedMaxMPH,WindSpeedAvgMPH,GustSpeedMaxMPH,PrecipitationSumIn
2014-1-1,35.2,29.7,24.7,23.7,12.8,-0.1,81,51,31,30.20,29.98,36,10,40,0.00
2014-1-2,42.3,34.4,21.9,7.5,1.9,-4.4,39,25,16,30.23,30.11,28,8,34,0.00
2014-1-3,44.2,37.9,29.8,9.9,3.3,-3.0,42,23,14,30.11,29.83,34,10,34,0.00
2014-1-4,35.9,24.7,7.7,22.5,6.0,-10.1,83,46,30,29.93,29.71,34,8,35,0.01
2014-1-5,14.9,9.5,6.1,-2.3,-8.2,-12.6,52,44,36,30.07,29.91,30,7,31,0.00
2014-1-6,32.1,20.0,1.8,6.0,-4.3,-15.8,49,34,25,30.19,30.04,35,10,40,0.00
2014-1-7,43.2,28.5,13.8,16.8,7.5,-1.6,63,43,21,30.18,29.99,28,6,30,0.00
2014-1-8,35.9,29.8,25.1,19.3,14.7,11.4,68,53,39,30.05,29.97,26,6,26,0.00
2014-1-9,32.2,27.8,23.8,20.7,15.4,11.0,82,60,42,30.00,29.77,36,10,38,0.00
2014-1-10,27.9,23.0,16.9,19.1,9.0,-3.5,85,55,38,29.98,29.76,49,12,49,0.00
2014-1-11,44.2,36.0,27.6,19.9,15.7,10.1,54,44,31,30.12,29.85,35,12,36,0.00
2014-1-12,38.6,28.5,18.1,20.9,10.7,-2.0,71,47,35,29.99,29.77,39,10,39,0.00
2014-1-13,35.0,25.2,16.9,12.5,6.3,-0.4,54,44,31,30.12,29.99,36,11,37,0.00
2014-1-14,34.9,28.5,24.1,16.4,8.8,3.7,61,44,28,30.29,30.10,42,12,42,0.00
2014-1-15,41.2,32.2,21.9,12.1,9.6,6.9,57,39,27,30.26,30.16,35,9,38,0.00
2014-1-16,39.2,29.4,16.5,9.2,5.2,1.0,55,37,20,30.23,30.13,30,6,30,0.00
2014-1-17,41.8,32.5,26.1,10.2,6.9,4.5,47,34,25,30.20,30.10,38,8,38,0.00
2014-1-18,47.0,30.1,15.2,11.8,7.6,3.6,63,40,21,30.25,30.11,27,2,27,0.00
2014-1-19,44.9,32.6,17.0,11.1,7.2,1.5,56,36,22,30.22,30.12,29,8,31,0.00
2014-1-20,45.7,33.3,19.4,10.9,6.6,3.6,54,33,19,30.34,30.12,22,4,24,0.00
2014-1-21,45.7,32.3,16.9,5.7,-5.4,-15.5,57,24,8,30.35,30.17,28,5,30,0.00
2014-1-22,43.1,26.2,16.1,6.3,-3.1,-11.5,56,30,10,30.33,29.95,13,2,14,0.00
2014-1-23,27.6,17.3,7.4,13.3,7.1,1.1,83,65,43,30.33,30.09,12,2,12,0.03
2014-1-24,44.2,26.4,7.6,5.7,1.2,-5.6,77,38,16,30.31,30.22,31,5,32,0.00
2014-1-25,50.2,34.3,17.5,15.4,9.5,0.3,60,37,20,30.29,30.05,30,6,30,0.00
2014-1-26,43.8,35.3,24.2,13.8,10.8,7.2,56,37,25,30.05,29.94,29,10,33,0.00
2014-1-27,40.6,27.5,8.4,17.2,11.6,2.7,88,55,30,29.99,29.82,31,8,33,0.00
2014-1-28,30.7,17.6,-3.5,13.3,-1.8,-14.2,87,51,16,30.08,29.93,34,6,38,0.01
2014-1-29,41.1,31.3,16.5,27.2,12.0,-3.5,87,49,23,30.03,29.80,38,11,44,0.01
2014-1-30,36.3,33.2,30.0,31.1,28.8,25.2,93,84,64,29.80,29.65,34,5,34,0.12
2014-1-31,35.8,27.0,22.9,28.8,21.7,13.6,92,80,65,29.75,29.65,24,3,26,0.00
2014-2-1,27.2,16.8,4.3,16.7,9.5,-2.6,87,73,49,29.92,29.72,20,2,20,0.05
2014-2-2,30.9,13.3,-3.5,7.0,1.6,-9.8,83,61,26,29.97,29.74,26,3,28,0.09
2014-2-3,32.2,20.5,9.7,15.3,9.4,5.6,83,63,39,29.85,29.74,22,5,25,0.02
2014-2-4,27.0,14.4,5.2,12.4,5.9,0.1,84,70,40,29.91,29.72,32,3,32,0.07
2014-2-5,21.4,9.7,-5.2,5.6,-1.8,-11.5,83,62,34,29.98,29.74,34,4,34,0.00
2014-2-6,27.9,19.8,9.7,13.2,7.8,5.0,83,61,41,29.89,29.74,33,8,35,0.00
2014-2-7,30.9,23.4,9.7,18.9,12.8,5.6,83,65,47,29.90,29.74,40,10,40,0.00
2014-2-8,34.6,29.7,24.2,25.9,20.5,12.2,84,69,54,30.06,29.89,36,10,37,0.05
2014-2-9,41.8,35.3,30.7,30.0,27.4,23.7,89,73,51,30.03,29.94,37,8,40,0.16
2014-2-10,37.2,30.1,17.0,30.0,22.9,10.8,89,75,57,30.06,29.93,13,2,24,0.21
2014-2-11,36.8,27.1,4.8,18.7,7.7,-0.7,83,46,23,30.08,29.95,26,5,27,0.04
2014-2-12,39.2,32.4,14.1,22.3,12.2,-2.0,60,45,20,30.12,29.95,36,10,41,0.00
2014-2-13,42.1,37.3,31.8,28.8,23.6,18.7,79,58,47,30.07,29.97,41,11,41,0.03
2014-2-14,41.5,38.2,34.3,28.3,24.0,19.0,67,57,42,30.08,29.97,44,14,48,0.01
2014-2-15,48.8,43.5,37.9,25.9,21.1,14.8,55,41,27,30.13,30.06,37,9,41,0.01
2014-2-16,46.4,40.3,34.4,28.1,16.8,1.2,70,39,23,30.10,29.92,33,9,33,0.00
2014-2-17,45.4,36.3,26.9,3.6,-1.6,-8.8,29,20,12,30.20,30.04,29,9,31,0.00
2014-2-18,46.4,37.2,28.4,10.0,3.9,-1.3,38,25,15,30.17,29.97,38,10,39,0.00
2014-2-19,42.5,34.5,25.4,26.0,10.9,-1.3,85,40,27,30.17,29.66,40,9,44,0.00
2014-2-20,28.4,20.4,12.8,1.6,-2.8,-10.0,49,36,27,30.17,29.80,40,11,40,0.00
2014-2-21,34.9,26.9,19.2,9.0,4.2,-4.2,62,38,23,30.00,29.95,35,11,37,0.00
2014-2-22,36.9,31.4,24.1,15.0,8.2,2.8,48,37,27,29.96,29.89,35,9,40,0.00
2014-2-23,43.6,36.6,28.7,10.1,7.0,3.4,41,29,22,30.05,29.96,38,11,40,0.00
2014-2-24,47.3,37.1,27.2,13.4,8.6,4.8,52,32,19,30.09,30.02,33,6,35,0.00
2014-2-25,48.2,36.9,14.9,17.1,11.1,5.7,80,37,23,30.09,29.96,32,5,32,0.00
2014-2-26,47.3,31.7,13.8,19.5,14.4,9.3,83,53,24,30.05,29.97,27,6,29,0.00
2014-2-27,42.8,35.5,27.6,30.0,21.9,16.8,88,58,41,29.98,29.73,39,8,39,0.00
2014-2-28,40.9,34.7,31.0,24.5,19.4,11.4,74,54,31,29.92,29.76,43,14,43,0.00
2014-3-1,39.5,34.8,29.8,30.9,23.9,19.8,85,65,49,29.92,29.79,35,7,35,0.05
2014-3-2,43.2,32.3,23.9,25.7,20.5,17.1,78,62,39,30.09,29.89,28,4,28,0.01
2014-3-3,45.7,35.7,26.1,19.9,17.5,15.2,71,48,32,30.09,30.04,26,8,30,0.00
2014-3-4,47.4,38.4,30.7,26.4,15.7,3.5,82,42,17,30.05,29.90,28,8,28,0.00
2014-3-5,45.4,34.5,19.1,27.2,13.7,2.7,89,47,20,30.16,30.01,24,6,26,0.01
2014-3-6,52.6,40.4,27.3,22.6,8.5,3.2,59,28,14,30.15,29.97,28,7,35,0.00
2014-3-7,43.8,33.5,24.8,29.6,23.4,17.2,89,68,41,30.09,29.88,20,4,21,0.01
2014-3-8,39.5,29.2,19.7,22.6,18.1,10.8,89,65,41,30.32,30.09,16,3,17,0.19
2014-3-9,56.2,37.3,16.7,17.9,8.3,-1.8,73,36,14,30.31,30.19,27,5,29,0.00
2014-3-10,56.5,46.6,33.5,7.1,-3.2,-14.8,31,13,6,30.19,29.85,32,8,33,0.00
2014-3-11,44.5,32.6,21.3,21.9,12.4,3.5,78,47,18,30.20,29.83,31,9,33,0.00
2014-3-12,45.7,28.2,11.6,12.6,5.5,-11.1,71,44,9,30.25,30.15,12,3,17,0.00
2014-3-13,46.2,35.6,24.5,21.9,8.7,-2.5,59,34,22,30.18,29.96,43,8,45,0.00
2014-3-14,49.1,36.9,24.7,18.0,11.1,-0.9,62,37,13,30.09,30.00,24,6,24,0.00
2014-3-15,42.9,32.4,19.2,14.9,6.5,-3.1,53,35,16,30.23,29.97,26,5,30,0.00
2014-3-16,53.5,34.0,14.8,11.7,6.4,-3.2,61,34,16,30.26,30.11,30,6,32,0.00
2014-3-17,49.6,41.4,29.7,28.0,8.0,-0.1,80,27,15,30.11,29.62,34,10,38,0.00
2014-3-18,35.8,26.4,20.0,17.1,5.9,-2.2,81,42,22,30.03,29.65,37,11,37,0.00
2014-3-19,41.8,28.1,8.8,16.7,6.8,-2.6,83,46,16,30.12,30.03,28,8,29,0.04
2014-3-20,49.4,40.3,31.9,4.1,-6.9,-16.8,29,14,6,30.10,29.98,41,11,47,0.00
2014-3-21,51.0,37.1,25.3,16.2,6.3,-1.7,64,30,14,30.07,29.97,24,4,25,0.00
2014-3-22,42.5,30.0,21.3,24.8,17.5,13.7,78,61,34,30.18,29.99,29,6,30,0.00
2014-3-23,44.3,31.8,13.3,18.6,7.3,-8.3,86,43,11,30.18,30.06,40,8,40,0.00
2014-3-24,50.4,38.7,31.3,6.1,2.0,-1.7,31,21,13,30.17,30.06,38,8,38,0.00
2014-3-25,56.6,43.9,31.6,9.0,4.8,-0.8,34,21,10,30.16,29.93,26,8,27,0.00
2014-3-26,49.1,38.9,31.3,29.8,19.9,7.1,86,49,27,29.93,29.64,29,7,34,0.00
2014-3-27,40.2,32.7,28.1,26.4,20.0,10.0,83,61,31,29.92,29.62,34,10,35,0.06
2014-3-28,42.1,33.1,24.7,24.0,12.0,3.2,83,44,23,30.21,29.90,33,7,33,0.02
2014-3-29,51.3,38.9,21.3,12.4,7.3,0.4,55,28,16,30.23,30.07,32,6,34,0.00
2014-3-30,51.6,41.6,30.6,23.5,13.4,7.5,73,33,18,30.08,29.64,42,8,51,0.00
2014-3-31,43.9,34.6,26.1,20.3,7.8,-12.8,68,37,9,30.00,29.64,34,11,36,0.00
2014-4-1,45.4,35.9,26.0,23.4,16.0,8.1,62,47,22,29.91,29.64,25,6,27,0.00
2014-4-2,46.0,35.9,29.4,25.2,16.9,-0.4,83,48,20,29.80,29.64,28,9,28,0.00
2014-4-3,30.4,26.2,20.2,23.6,19.6,11.7,87,76,58,30.08,29.76,17,3,17,0.17
2014-4-4,41.1,27.1,9.9,20.5,12.1,4.4,80,56,25,30.08,29.99,22,4,25,0.19
2014-4-5,42.5,30.9,20.8,28.7,20.7,12.9,91,68,37,29.99,29.89,18,3,18,0.00
2014-4-6,41.9,30.7,16.1,27.5,17.8,8.6,91,61,28,30.02,29.93,25,3,25,0.32
2014-4-7,46.2,35.1,21.0,21.9,14.6,7.9,78,47,22,30.23,30.01,28,6,30,0.00
2014-4-8,55.4,45.5,35.9,22.1,19.2,15.6,52,36,22,30.27,30.21,28,9,29,0.00
2014-4-9,61.2,51.3,41.3,17.9,14.4,9.2,38,24,14,30.25,30.08,33,9,37,0.00
2014-4-10,61.2,50.1,36.0,18.2,12.1,7.7,48,23,14,30.15,30.07,32,6,32,0.00
2014-4-11,62.9,48.6,29.5,21.6,14.6,8.9,64,30,13,30.15,30.04,29,6,31,0.00
2014-4-12,59.6,49.6,41.6,29.4,15.7,3.9,58,29,15,30.04,29.85,29,8,33,0.00
2014-4-13,44.8,34.5,17.0,33.3,24.6,13.0,90,69,37,30.02,29.77,24,4,27,0.07
2014-4-14,40.1,24.8,7.6,24.5,11.8,1.9,84,60,28,30.15,30.02,31,6,34,0.32
2014-4-15,49.9,39.3,26.9,12.3,6.7,1.1,45,26,18,30.15,29.89,42,12,42,0.00
2014-4-16,51.6,42.1,28.5,29.4,14.9,4.2,90,39,20,30.09,29.85,37,9,40,0.00
2014-4-17,55.6,40.1,25.7,32.2,21.3,12.1,90,54,19,30.14,30.08,30,4,30,0.17
2014-4-18,64.5,51.3,35.6,24.9,20.9,16.8,56,32,17,30.17,30.07,26,6,29,0.00
2014-4-19,58.9,47.8,39.9,37.9,31.0,23.0,86,54,34,30.17,30.08,26,5,26,0.04
2014-4-20,61.5,46.0,33.4,41.4,32.9,25.3,90,64,28,30.24,30.12,18,3,18,0.05
2014-4-21,62.9,47.9,32.4,33.0,26.0,8.9,74,48,13,30.28,30.20,21,5,24,0.00
2014-4-22,62.9,47.9,30.7,40.5,29.8,23.1,80,52,24,30.24,29.91,32,4,32,0.04
2014-4-23,55.9,46.1,35.6,29.0,20.8,10.7,60,38,21,29.97,29.84,33,10,37,0.00
2014-4-24,57.2,43.3,30.1,12.3,7.0,1.6,46,23,14,30.08,29.97,31,8,33,0.00
2014-4-25,65.0,50.3,31.3,14.4,10.1,3.1,48,22,9,30.06,29.87,27,7,32,0.00
2014-4-26,60.1,47.9,33.1,31.7,18.7,12.0,77,34,17,29.88,29.63,34,8,34,0.01
2014-4-27,44.1,36.4,29.3,24.9,18.9,12.4,76,50,28,29.82,29.56,36,10,37,0.00
2014-4-28,37.3,29.9,25.7,24.8,16.1,3.9,84,57,30,30.03,29.80,29,7,30,0.05
2014-4-29,42.1,32.2,24.2,11.6,7.7,4.7,49,36,22,30.20,30.04,25,6,25,0.00
2014-4-30,47.9,35.8,26.4,12.1,9.1,4.0,51,34,17,30.25,30.15,19,5,20,0.00
2014-5-1,51.0,37.2,20.3,13.3,7.7,-7.0,68,34,11,30.25,30.14,31,6,32,0.00
2014-5-2,64.3,49.1,28.1,20.1,15.8,10.1,54,28,15,30.19,30.12,27,6,29,0.00
2014-5-3,69.6,54.9,37.9,21.9,16.6,5.1,50,25,8,30.18,30.10,28,6,32,0.00
2014-5-4,68.6,56.9,42.5,17.4,10.9,1.8,35,17,8,30.13,30.06,37,7,39,0.00
2014-5-5,69.8,56.5,39.9,15.6,10.2,4.7,31,17,9,30.13,29.97,25,6,27,0.00
2014-5-6,66.3,52.8,39.1,18.0,10.0,1.8,35,19,8,29.99,29.80,18,6,29,0.00
2014-5-7,59.9,47.9,37.3,23.0,10.8,1.3,51,24,10,29.88,29.79,34,9,36,0.00
2014-5-8,49.6,39.6,30.7,28.4,18.9,13.1,57,43,29,30.05,29.88,35,8,35,0.00
2014-5-9,53.5,43.2,36.3,33.6,22.9,16.4,83,47,27,30.05,29.97,37,9,37,0.06
2014-5-10,59.2,46.3,31.8,34.8,28.2,20.6,84,52,24,30.03,29.85,29,6,32,0.00
2014-5-11,50.2,38.5,26.1,38.4,29.7,22.2,89,71,50,30.00,29.76,25,4,28,0.06
2014-5-12,31.2,26.6,23.5,26.7,22.3,19.8,89,84,74,30.26,30.00,16,3,19,0.27
2014-5-13,39.9,29.0,21.4,28.8,20.5,15.7,89,72,39,30.40,30.26,14,2,16,0.31
2014-5-14,50.5,35.8,20.6,20.8,15.3,8.9,68,45,23,30.41,30.28,26,6,28,0.00
2014-5-15,57.8,44.0,30.4,29.8,22.4,16.8,68,44,24,30.31,30.24,26,5,29,0.00
2014-5-16,65.8,53.2,36.2,33.7,23.9,16.5,68,34,18,30.24,30.14,35,6,35,0.00
2014-5-17,69.3,52.3,35.8,41.3,26.6,11.6,90,47,12,30.20,30.06,28,5,32,0.00
2014-5-18,71.5,54.3,34.9,34.2,21.8,10.0,77,34,12,30.12,29.98,28,4,28,0.00
2014-5-19,71.8,58.1,39.8,18.9,13.3,5.6,38,18,8,30.06,29.97,32,7,34,0.00
2014-5-20,72.7,57.0,36.5,19.6,12.6,1.5,46,20,7,30.12,30.04,26,6,28,0.00
2014-5-21,68.9,55.1,37.3,36.0,22.1,13.1,56,30,13,30.21,30.12,20,6,29,0.00
2014-5-22,65.5,52.7,41.9,44.9,36.5,23.7,88,58,22,30.31,30.18,24,5,27,0.14
2014-5-23,67.1,51.3,42.2,43.5,38.0,21.9,89,64,21,30.29,30.10,19,4,20,0.01
2014-5-24,67.4,48.0,36.6,39.5,34.9,21.3,90,65,20,30.19,30.03,30,5,32,0.19
2014-5-25,55.6,44.7,39.8,40.8,36.1,30.0,90,73,44,30.18,30.07,30,4,30,0.12
2014-5-26,67.6,51.2,35.2,38.4,32.0,21.9,83,53,19,30.25,30.14,24,4,24,0.00
2014-5-27,76.7,58.0,37.2,38.6,30.9,20.3,85,43,13,30.31,30.23,21,3,21,0.00
2014-5-28,76.5,59.5,44.5,48.2,33.1,22.3,66,40,14,30.32,30.20,20,5,22,0.03
2014-5-29,74.9,59.1,46.8,45.5,36.6,30.6,76,46,21,30.28,30.18,29,5,31,0.00
2014-5-30,63.1,54.4,46.1,50.2,43.9,38.4,85,69,47,30.27,30.20,21,4,21,0.13
2014-5-31,72.0,56.6,39.9,46.6,36.4,27.4,85,51,22,30.26,30.13,29,5,31,0.01
2014-6-1,71.6,58.6,41.8,36.2,20.3,5.1,73,29,8,30.19,30.10,34,7,36,0.00
2014-6-2,79.4,60.6,41.8,42.2,22.7,6.6,55,27,8,30.25,30.14,24,6,24,0.00
2014-6-3,76.7,62.8,45.1,32.4,18.9,7.4,46,21,9,30.18,30.07,34,7,34,0.00
2014-6-4,79.8,62.6,43.1,24.9,14.7,4.9,29,16,9,30.18,30.05,25,4,25,0.00
2014-6-5,77.7,61.1,39.6,44.4,23.6,2.5,66,27,6,30.20,30.08,30,6,30,0.00
2014-6-6,77.4,61.9,49.5,44.5,30.9,2.3,77,41,7,30.18,30.04,30,4,30,0.00
2014-6-7,76.0,57.1,43.8,45.0,39.6,15.2,78,55,10,30.20,30.10,22,3,22,0.00
2014-6-8,66.3,50.6,38.9,44.4,34.5,18.0,81,57,21,30.20,30.03,39,6,39,0.02
2014-6-9,71.8,52.4,33.1,31.3,22.6,7.1,78,39,9,30.21,30.11,25,3,25,0.00
2014-6-10,75.4,56.0,34.7,31.6,24.6,21.0,63,34,14,30.20,30.11,40,4,40,0.00
2014-6-11,75.4,57.1,40.6,42.3,30.6,24.1,71,39,16,30.22,30.07,32,5,36,0.09
2014-6-12,75.1,56.5,43.9,44.9,39.0,20.8,80,56,14,30.27,30.16,18,3,22,0.00
2014-6-13,77.9,61.3,39.2,40.6,28.1,18.3,80,36,12,30.23,30.00,29,6,31,0.00
2014-6-14,73.2,57.0,43.1,35.0,20.3,6.8,73,27,8,30.19,29.90,35,6,37,0.00
2014-6-15,73.0,56.0,36.8,35.0,21.0,10.2,73,33,11,30.19,30.00,25,5,27,0.00
2014-6-16,74.4,59.7,43.1,35.0,17.3,6.9,73,27,9,30.19,30.00,34,8,41,0.00
2014-6-17,75.4,62.1,43.1,35.0,22.0,11.1,73,26,11,30.19,30.00,32,7,33,0.00
2014-6-18,71.5,55.2,39.8,39.8,27.2,19.6,75,39,15,30.17,30.03,33,5,33,0.04
2014-6-19,73.7,59.5,36.5,33.0,21.1,6.2,74,29,9,30.27,30.14,32,9,37,0.00
2014-6-20,79.8,63.9,40.8,28.6,17.6,5.8,39,19,7,30.30,30.17,24,5,25,0.00
2014-6-21,77.9,62.0,47.0,32.6,24.3,17.2,40,25,11,30.24,30.14,24,4,24,0.00
2014-6-22,73.9,59.3,45.2,40.5,27.7,20.5,56,31,15,30.22,30.16,29,6,35,0.00
2014-6-23,77.6,58.7,41.8,42.5,33.6,20.5,73,44,14,30.29,30.18,31,5,31,0.00
2014-6-24,80.3,62.1,43.6,43.8,32.1,19.9,71,39,11,30.29,30.17,27,4,32,0.00
2014-6-25,80.9,64.6,47.3,47.0,34.2,18.5,80,40,10,30.26,30.12,27,4,28,0.00
2014-6-26,81.2,64.4,42.8,33.1,23.8,14.5,56,25,10,30.19,30.00,42,4,49,0.00
2014-6-27,71.1,61.1,50.7,31.8,24.7,15.0,43,25,17,30.05,29.98,35,7,39,0.00
2014-6-28,73.5,60.1,46.4,32.8,26.1,17.2,52,30,12,30.21,30.05,32,7,33,0.00
2014-6-29,82.6,66.6,44.1,27.3,24.2,20.1,43,22,11,30.22,30.17,33,7,35,0.00
2014-6-30,84.9,72.1,58.7,41.2,25.2,14.9,50,19,8,30.20,30.14,33,7,33,0.00
2014-7-1,74.4,61.3,53.1,46.8,44.4,40.9,73,55,34,30.32,30.20,18,4,19,0.00
2014-7-2,74.2,61.2,49.9,51.0,44.7,41.1,77,56,35,30.35,30.23,18,3,19,0.00
2014-7-3,80.7,61.9,44.2,47.9,38.4,25.8,82,48,15,30.38,30.26,25,4,25,0.03
2014-7-4,81.2,61.0,46.5,50.2,42.5,33.8,83,55,20,30.40,30.29,25,4,26,0.04
2014-7-5,79.0,62.2,45.5,47.6,40.1,28.9,80,49,18,30.40,30.32,25,4,25,0.01
2014-7-6,86.7,66.4,48.5,43.0,35.6,26.6,64,36,13,30.38,30.29,29,3,29,0.00
2014-7-7,82.2,65.0,51.7,52.9,38.4,31.9,76,39,17,30.34,30.24,28,5,29,0.10
2014-7-8,78.5,62.1,49.8,51.5,44.6,33.7,76,54,23,30.37,30.25,31,5,33,0.02
2014-7-9,79.0,62.6,48.0,47.6,41.3,32.2,73,49,20,30.35,30.21,26,3,26,0.04
2014-7-10,82.6,64.9,50.1,53.9,42.9,35.3,68,48,20,30.28,30.19,21,3,24,0.03
2014-7-11,81.6,65.5,50.2,49.2,43.7,37.3,74,48,24,30.34,30.25,21,4,25,0.00
2014-7-12,78.3,62.0,54.7,53.0,46.9,39.6,83,60,26,30.44,30.32,25,4,28,0.06
2014-7-13,78.5,59.8,47.4,54.6,49.2,41.5,87,70,28,30.44,30.34,30,6,30,0.20
2014-7-14,81.6,63.9,53.5,56.6,49.7,38.2,86,64,24,30.41,30.31,30,3,30,0.16
2014-7-15,73.9,59.5,48.9,52.5,47.3,40.8,87,67,33,30.41,30.23,26,4,30,0.16
2014-7-16,77.6,62.8,48.3,50.4,43.1,32.1,89,53,20,30.27,30.11,32,6,37,0.01
2014-7-17,73.0,58.8,45.2,53.8,47.8,41.9,91,70,38,30.26,30.16,17,3,17,0.09
2014-7-18,78.8,61.4,45.2,51.8,43.3,35.1,86,56,22,30.28,30.20,20,3,21,0.02
2014-7-19,77.6,62.2,48.8,49.9,41.5,35.4,74,49,27,30.30,30.24,20,4,24,0.00
2014-7-20,85.3,65.7,47.0,44.0,37.9,26.9,72,41,13,30.34,30.24,31,5,34,0.00
2014-7-21,83.4,66.5,53.8,48.1,36.5,25.7,66,37,13,30.38,30.30,22,4,24,0.00
2014-7-22,88.2,70.5,49.8,41.2,32.5,18.9,50,28,8,30.51,30.37,26,5,26,0.00
2014-7-23,88.2,69.4,53.1,45.9,39.5,30.9,65,37,14,30.52,30.37,25,4,25,0.00
2014-7-24,86.3,70.0,57.0,45.8,40.8,32.1,58,37,16,30.43,30.23,35,6,37,0.00
2014-7-25,85.7,69.0,55.4,47.3,42.7,36.3,63,41,18,30.32,30.26,26,4,31,0.00
2014-7-26,83.4,62.8,48.8,58.5,47.0,38.5,83,60,22,30.43,30.31,20,4,24,0.23
2014-7-27,77.6,59.7,47.6,55.3,47.7,39.1,88,68,28,30.46,30.38,18,4,18,0.20
2014-7-28,75.4,59.9,54.2,56.9,50.5,44.5,86,73,40,30.48,30.37,17,2,18,0.06
2014-7-29,72.0,59.9,50.1,54.3,48.4,43.5,87,67,43,30.42,30.26,20,2,20,0.00
2014-7-30,66.6,56.7,49.8,53.9,48.4,40.8,90,75,51,30.38,30.29,13,2,14,0.17
2014-7-31,61.6,53.9,50.2,55.0,49.8,47.5,92,86,68,30.38,30.32,12,1,13,0.22
2014-8-1,65.3,54.0,47.6,54.7,47.9,42.7,92,81,55,30.39,30.32,20,2,20,0.32
2014-8-2,73.2,58.2,43.3,51.4,42.7,33.7,86,60,24,30.40,30.31,13,4,14,0.00
2014-8-3,78.1,63.0,48.0,53.5,45.4,34.4,84,56,23,30.38,30.28,18,3,19,0.00
2014-8-4,73.3,61.2,50.7,53.1,46.1,40.8,87,61,32,30.34,30.26,24,4,24,0.00
2014-8-5,75.3,61.8,46.5,49.2,41.2,33.3,88,52,22,30.34,30.24,29,6,30,0.00
2014-8-6,79.8,65.6,52.0,49.5,36.4,25.0,60,38,15,30.33,30.24,25,7,25,0.00
2014-8-7,77.4,63.8,52.8,51.0,38.3,26.2,73,43,18,30.30,30.20,29,5,29,0.00
2014-8-8,79.4,62.6,49.4,50.2,31.7,17.9,71,36,12,30.29,30.21,24,6,25,0.00
2014-8-9,78.6,61.7,42.9,42.6,31.8,22.8,62,37,14,30.38,30.26,27,4,28,0.00
2014-8-10,75.3,57.0,45.4,52.1,41.7,32.6,90,60,30,30.47,30.34,20,4,22,0.16
2014-8-11,76.1,56.6,42.2,51.5,41.7,37.7,90,60,28,30.47,30.38,16,3,17,0.00
2014-8-12,78.6,62.8,47.7,49.2,41.8,30.8,79,50,24,30.44,30.31,22,5,22,0.00
2014-8-13,77.4,64.7,49.1,49.1,43.5,34.6,74,49,26,30.38,30.26,30,4,30,0.00
2014-8-14,74.4,62.4,53.9,53.2,46.2,41.2,71,56,38,30.29,30.22,25,4,25,0.00
2014-8-15,78.6,61.5,47.7,50.7,43.0,32.5,80,54,22,30.33,30.23,17,4,27,0.00
2014-8-16,81.1,62.5,44.2,45.0,36.9,28.3,78,44,20,30.36,30.28,28,5,28,0.00
2014-8-17,82.6,63.9,48.8,45.2,36.4,30.4,59,38,18,30.36,30.27,19,4,21,0.00
2014-8-18,80.5,64.6,47.1,47.1,35.8,30.4,58,37,18,30.32,30.19,19,4,19,0.00
2014-8-19,77.2,61.5,53.6,48.1,38.4,30.6,65,44,23,30.24,30.11,27,4,28,0.02
2014-8-20,76.8,63.6,54.8,45.3,39.8,34.4,64,44,22,30.19,30.11,28,9,30,0.00
2014-8-21,73.9,64.0,54.5,40.7,33.8,22.9,53,35,15,30.26,30.19,24,8,26,0.00
2014-8-22,63.1,56.0,49.1,49.4,41.7,34.2,81,61,37,30.28,30.17,18,3,20,0.01
2014-8-23,71.8,56.9,45.1,44.3,39.1,32.6,85,54,27,30.21,30.11,33,7,33,0.00
2014-8-24,73.9,61.2,51.1,38.9,34.9,26.7,60,40,22,30.22,30.17,30,7,30,0.00
2014-8-25,72.8,57.2,46.1,51.4,40.3,31.0,76,56,24,30.29,30.22,32,4,32,0.09
2014-8-26,69.8,55.2,45.8,55.3,44.6,34.9,89,71,36,30.34,30.27,20,2,20,0.24
2014-8-27,68.1,54.8,45.8,50.9,39.7,27.4,91,60,28,30.32,30.23,29,6,29,0.22
2014-8-28,65.2,54.7,43.8,45.3,37.7,30.8,71,54,31,30.28,30.23,25,6,25,0.01
2014-8-29,72.1,54.2,39.2,49.5,36.7,21.6,82,55,23,30.31,30.21,26,3,26,0.06
2014-8-30,75.3,57.0,40.3,50.8,35.8,25.1,80,50,22,30.30,30.15,25,5,25,0.00
2014-8-31,72.5,61.0,47.6,39.7,32.5,25.6,63,36,20,30.15,30.10,34,6,34,0.02
2014-9-1,74.4,62.0,50.4,38.0,28.2,24.4,46,29,17,30.25,30.13,30,7,31,0.00
2014-9-2,79.9,64.4,40.1,44.4,28.6,23.1,64,30,13,30.27,30.16,27,6,35,0.00
2014-9-3,81.8,65.5,46.7,36.1,28.1,19.6,50,27,11,30.19,30.09,17,5,33,0.00
2014-9-4,76.7,60.4,45.5,47.7,31.8,24.4,88,37,17,30.28,30.14,28,5,29,0.05
2014-9-5,66.0,52.9,46.7,49.2,44.0,34.2,89,74,32,30.39,30.28,14,1,14,0.13
2014-9-6,71.6,56.6,43.5,53.1,44.2,36.2,88,66,36,30.39,30.30,16,2,16,0.01
2014-9-7,74.7,58.4,41.5,49.8,38.8,28.7,87,54,23,30.37,30.23,24,4,26,0.00
2014-9-8,69.6,58.8,52.5,46.2,39.9,34.1,60,49,38,30.27,30.17,25,6,25,0.00
2014-9-9,63.5,56.7,49.4,51.8,44.5,39.4,83,64,47,30.17,30.07,27,6,30,0.09
2014-9-10,66.9,56.1,43.8,45.9,34.4,25.9,74,47,23,30.23,30.11,26,6,29,0.00
2014-9-11,70.1,56.8,43.8,41.4,29.9,19.1,80,40,18,30.26,30.15,28,6,28,0.00
2014-9-12,60.2,45.0,33.7,41.6,33.3,26.8,84,66,35,30.33,30.23,17,4,17,0.00
2014-9-13,72.3,52.7,28.4,36.4,24.8,17.8,87,42,15,30.31,30.22,26,6,28,0.00
2014-9-14,75.3,58.2,39.3,40.8,27.4,21.2,56,34,15,30.31,30.22,24,6,24,0.00
2014-9-15,74.4,58.7,42.9,42.4,30.9,24.5,63,37,17,30.37,30.28,17,3,17,0.00
2014-9-16,79.6,60.0,42.1,45.2,35.9,24.4,71,45,17,30.37,30.23,32,4,37,0.00
2014-9-17,77.0,60.7,46.1,42.2,34.8,25.7,65,41,16,30.29,30.16,18,4,21,0.00
2014-9-18,78.6,60.5,43.6,42.2,30.0,27.0,67,36,17,30.25,30.13,19,5,21,0.00
2014-9-19,83.4,61.1,44.2,44.6,33.7,23.3,59,39,15,30.24,30.14,22,4,22,0.00
2014-9-20,80.3,61.7,48.2,49.7,38.8,32.2,89,47,20,30.42,30.24,22,3,26,0.23
2014-9-21,62.4,54.4,50.7,53.6,49.8,47.3,91,85,67,30.43,30.34,12,2,12,0.50
2014-9-22,66.0,56.4,51.0,54.6,45.9,39.3,92,70,40,30.36,30.24,27,3,30,0.17
2014-9-23,70.1,57.4,47.7,43.0,39.1,31.6,75,53,28,30.34,30.25,25,6,26,0.00
2014-9-24,74.6,58.5,43.1,41.2,35.2,26.2,69,46,17,30.39,30.30,19,3,24,0.00
2014-9-25,78.1,61.4,44.5,45.4,38.4,32.6,72,45,22,30.38,30.25,17,4,19,0.00
2014-9-26,77.7,60.0,43.1,43.7,38.4,33.8,76,48,21,30.31,30.17,18,3,19,0.00
2014-9-27,77.4,60.5,43.9,47.4,37.2,29.9,76,45,20,30.22,30.06,20,3,26,0.00
2014-9-28,64.8,55.3,49.2,46.2,41.0,34.2,72,59,41,30.17,30.12,19,4,19,0.00
2014-9-29,52.8,46.2,38.6,45.3,37.6,28.2,84,72,58,30.17,29.98,33,7,36,0.22
2014-9-30,53.6,45.3,40.8,37.1,29.9,25.6,81,56,40,30.06,30.01,21,8,32,0.01
2014-10-1,53.6,43.5,35.3,40.2,30.0,21.7,79,59,44,30.09,29.97,34,7,35,0.02
2014-10-2,53.3,43.2,29.8,27.4,20.0,13.1,71,41,27,30.25,30.09,28,6,28,0.00
2014-10-3,62.7,48.2,35.0,34.0,20.6,12.6,59,36,16,30.32,30.25,27,6,28,0.00
2014-10-4,65.3,51.8,36.5,28.1,22.2,12.7,50,33,20,30.31,30.15,27,8,28,0.00
2014-10-5,68.3,53.8,41.5,29.8,19.6,4.8,47,29,9,30.21,30.13,29,7,30,0.00
2014-10-6,67.3,56.0,47.0,28.2,24.3,20.4,45,30,18,30.20,30.12,30,11,31,0.00
2014-10-7,69.9,54.1,35.9,27.9,23.1,16.3,52,31,17,30.24,30.16,18,4,22,0.00
2014-10-8,69.4,53.6,39.2,35.8,24.9,14.8,57,36,15,30.23,30.11,18,3,18,0.00
2014-10-9,50.1,43.6,37.0,40.7,35.2,27.7,90,74,42,30.22,30.12,11,2,12,0.81
2014-10-10,46.7,40.4,36.0,37.7,35.7,33.4,92,84,66,30.26,30.21,8,0,8,0.17
2014-10-11,58.0,46.1,33.1,42.4,33.5,24.7,92,65,36,30.23,30.05,29,4,29,0.01
2014-10-12,48.9,41.3,32.4,38.2,29.1,20.2,88,63,41,30.12,29.89,25,4,27,0.16
2014-10-13,53.1,38.3,25.1,31.8,21.8,13.4,84,56,26,30.25,30.12,22,4,22,0.00
2014-10-14,68.3,45.3,26.6,28.9,21.2,14.8,74,44,16,30.29,30.23,19,2,19,0.00
2014-10-15,66.4,51.4,34.9,36.0,22.3,11.2,58,35,15,30.27,30.13,28,5,28,0.00
2014-10-16,67.8,56.3,43.1,26.5,16.6,-0.3,36,22,11,30.19,30.12,28,5,28,0.00
2014-10-17,65.3,46.8,30.4,38.0,23.3,14.6,75,43,18,30.24,30.14,17,2,17,0.00
2014-10-18,62.3,48.4,36.8,34.7,30.2,25.9,72,52,30,30.24,30.16,16,2,16,0.00
2014-10-19,63.2,51.4,43.3,38.5,33.2,27.3,66,51,27,30.26,30.17,18,2,18,0.00
2014-10-20,61.2,47.7,36.2,42.3,33.4,28.7,79,59,31,30.28,30.20,15,3,19,0.02
2014-10-21,58.9,46.5,35.0,41.8,34.7,28.0,90,65,41,30.22,30.09,21,4,21,0.11
2014-10-22,56.7,45.1,36.6,42.9,35.3,25.5,89,70,42,30.25,30.12,22,3,22,0.03
2014-10-23,61.8,49.4,35.8,33.9,28.3,21.6,76,46,28,30.31,30.24,27,5,27,0.00
2014-10-24,68.1,55.1,43.8,30.1,20.4,13.2,41,27,13,30.34,30.28,31,7,31,0.00
2014-10-25,72.0,51.4,34.6,29.4,19.6,9.3,50,31,12,30.36,30.20,14,3,17,0.00
2014-10-26,64.5,54.3,43.8,33.5,24.5,14.3,48,33,17,30.19,29.97,27,7,30,0.00
2014-10-27,51.7,44.5,27.2,34.8,20.5,8.7,69,40,19,30.13,29.95,37,10,37,0.02
2014-10-28,55.4,39.1,22.2,24.1,8.7,-3.1,76,37,10,30.25,30.12,27,5,29,0.00
2014-10-29,57.5,45.8,28.1,19.9,7.7,-0.4,40,22,16,30.28,30.20,28,7,29,0.00
2014-10-30,60.9,44.2,30.9,29.5,17.6,9.6,53,36,20,30.38,30.27,16,3,17,0.00
2014-10-31,59.0,41.2,25.4,34.2,20.3,7.5,71,46,23,30.38,30.17,22,4,22,0.00
2014-11-1,62.6,45.4,32.2,39.6,28.9,14.3,77,56,19,30.19,30.00,25,4,25,0.01
2014-11-2,49.5,41.2,30.6,37.2,30.6,23.8,84,67,45,30.05,29.94,14,3,25,0.03
2014-11-3,43.3,34.5,25.4,30.4,19.6,10.3,87,55,34,30.20,29.92,31,7,31,0.04
2014-11-4,52.3,35.3,17.7,20.8,13.2,1.5,76,45,13,30.29,30.20,19,5,20,0.00
2014-11-5,60.9,40.5,25.7,19.6,13.6,3.0,56,35,16,30.42,30.23,21,2,22,0.00
2014-11-6,64.0,46.2,27.8,26.5,16.4,11.0,59,34,17,30.44,30.28,22,5,26,0.00
2014-11-7,59.9,49.4,31.6,20.5,13.1,5.1,58,25,16,30.34,30.16,32,8,32,0.00
2014-11-8,60.4,44.0,24.4,34.5,12.5,-6.4,83,36,8,30.35,30.21,25,6,25,0.00
2014-11-9,57.5,50.1,45.5,12.9,7.1,-3.5,20,17,11,30.21,29.85,30,9,30,0.00
2014-11-10,55.7,43.3,15.7,28.4,13.8,-5.5,75,32,17,29.91,29.70,31,11,31,0.00
2014-11-11,47.9,23.1,7.4,15.8,5.8,-17.1,83,55,17,29.99,29.85,22,5,44,0.00
2014-11-12,8.6,3.5,-4.3,1.8,-4.0,-11.9,73,70,67,30.10,29.99,11,2,11,0.00
2014-11-13,35.2,17.2,-9.6,29.1,9.6,-16.4,83,72,65,30.09,29.94,20,4,20,0.05
2014-11-14,39.5,33.9,28.8,28.5,23.3,18.2,88,66,47,29.99,29.86,29,8,29,0.11
2014-11-15,35.8,29.0,11.9,26.3,18.1,6.7,84,61,50,29.92,29.85,29,8,29,0.05
2014-11-16,26.3,14.0,-1.8,16.3,3.0,-8.0,80,63,43,30.11,29.89,19,4,27,0.13
2014-11-17,29.1,18.4,1.8,6.8,-2.4,-9.9,65,41,24,30.16,30.07,27,7,27,0.00
2014-11-18,34.3,25.2,9.2,9.6,1.3,-9.7,51,34,27,30.17,30.11,29,8,30,0.00
2014-11-19,44.1,35.3,28.4,8.0,-0.6,-10.4,36,22,15,30.12,30.06,28,8,29,0.00
2014-11-20,46.8,34.6,22.9,14.0,2.7,-12.9,40,26,15,30.09,30.00,19,5,21,0.00
2014-11-21,43.5,33.9,23.5,17.3,12.7,6.7,58,42,27,30.07,30.00,26,6,26,0.00
2014-11-22,44.5,36.0,26.0,26.7,13.4,4.5,85,40,22,30.07,29.77,34,11,34,0.00
2014-11-23,33.1,25.8,17.2,27.3,11.3,-3.5,85,56,31,29.95,29.74,21,7,21,0.08
2014-11-24,27.8,19.2,12.4,10.8,3.3,-3.1,64,50,31,30.17,29.93,27,8,27,0.00
2014-11-25,32.2,25.7,16.1,19.5,9.0,-1.9,60,49,38,30.17,30.03,46,15,51,0.00
2014-11-26,45.1,38.6,32.1,24.7,20.9,14.2,61,49,34,30.33,30.09,36,11,38,0.00
2014-11-27,52.2,44.4,35.9,19.2,14.0,8.1,48,30,20,30.35,30.19,28,8,30,0.00
2014-11-28,55.0,49.3,45.7,8.3,2.9,-4.0,20,14,10,30.19,29.99,39,12,39,0.00
2014-11-29,50.8,45.0,39.3,3.4,1.5,-1.4,21,16,12,29.99,29.88,36,14,36,0.00
2014-11-30,48.0,39.8,19.9,11.0,5.6,0.9,65,25,16,30.12,29.92,33,10,35,0.00
2014-12-1,44.6,29.3,12.9,27.9,13.1,6.2,84,55,28,30.22,30.12,29,6,29,0.00
2014-12-2,49.5,41.7,35.5,12.8,3.8,-5.9,37,22,12,30.17,30.06,29,7,29,0.00
2014-12-3,46.8,40.8,35.5,30.7,20.8,-2.0,63,46,17,30.14,30.05,26,8,28,0.00
2014-12-4,46.2,41.8,38.2,27.4,24.7,22.3,62,51,39,30.10,30.00,20,8,30,0.00
2014-12-5,48.6,37.4,27.3,26.5,20.0,15.0,63,50,29,30.33,30.06,22,6,22,0.00
2014-12-6,43.5,32.7,23.8,28.5,21.6,16.1,79,64,48,30.34,30.26,20,3,20,0.00
2014-12-7,46.5,37.0,26.7,22.9,19.2,10.6,69,49,35,30.32,30.25,30,7,30,0.00
2014-12-8,54.5,33.9,20.8,28.4,5.9,-10.0,62,37,8,30.33,30.26,18,2,20,0.00
2014-12-9,57.2,35.5,19.4,21.0,2.8,-6.5,50,28,8,30.33,30.18,12,2,13,0.00
2014-12-10,55.0,35.4,22.5,12.2,2.7,-4.0,40,26,12,30.23,30.13,14,2,14,0.00
2014-12-11,53.3,36.7,22.7,16.0,9.1,-4.5,56,33,18,30.19,30.12,31,4,31,0.00
2014-12-12,52.5,36.9,24.5,21.2,13.5,8.1,62,41,22,30.21,30.11,12,2,16,0.00
2014-12-13,50.1,36.5,29.3,28.6,19.6,13.3,84,51,35,30.11,29.83,24,3,24,0.00
2014-12-14,36.3,30.8,25.4,25.6,17.2,9.8,86,58,45,29.94,29.77,32,10,32,0.00
2014-12-15,32.9,24.7,14.6,14.2,7.2,-3.8,62,47,36,30.14,29.93,29,8,29,0.00
2014-12-16,40.5,27.7,13.8,16.7,9.4,2.0,64,47,30,30.14,30.03,22,4,22,0.00
2014-12-17,33.4,25.6,19.2,24.0,16.6,10.7,81,69,58,30.03,29.92,8,1,11,0.00
2014-12-18,35.8,27.2,18.6,16.6,13.4,9.0,83,57,39,30.08,29.98,22,6,24,0.00
2014-12-19,33.7,24.4,16.1,15.2,8.8,5.3,67,52,35,30.11,30.05,29,6,29,0.00
2014-12-20,39.6,28.4,15.7,18.8,13.2,5.7,67,53,37,30.09,29.97,29,5,29,0.00
2014-12-21,35.0,32.2,30.3,28.4,20.3,13.4,90,62,46,29.97,29.77,36,9,36,0.00
2014-12-22,32.2,25.2,11.7,28.3,18.9,6.8,91,78,36,29.89,29.73,26,3,26,0.05
2014-12-23,27.9,13.8,0.9,7.9,-1.7,-11.8,77,51,30,30.11,29.89,16,3,17,0.18
2014-12-24,40.6,22.2,-0.2,16.1,4.6,-8.9,68,49,29,30.08,29.70,31,5,34,0.03
2014-12-25,37.3,26.3,16.1,16.1,11.4,5.9,79,54,32,29.71,29.59,25,4,26,0.00
2014-12-26,20.0,10.3,-2.2,15.7,4.8,-8.4,83,78,71,29.96,29.69,10,2,12,0.00
2014-12-27,20.8,9.0,-6.8,8.2,-4.1,-13.1,80,57,29,30.08,29.96,31,6,31,0.09
2014-12-28,26.4,21.2,5.0,8.2,-0.3,-18.8,57,39,15,30.01,29.90,36,11,38,0.00
2014-12-29,20.5,12.7,1.3,10.9,5.5,-5.4,81,72,50,30.08,29.88,14,3,27,0.00
2014-12-30,2.0,-3.7,-11.7,-5.6,-11.4,-19.2,74,69,62,30.12,30.06,9,2,10,0.00
2014-12-31,25.0,4.7,-12.8,11.4,-3.9,-20.3,78,68,51,30.12,30.01,12,1,12,0.14
2015-1-1,23.6,9.1,-1.8,15.5,3.0,-7.5,82,76,63,30.01,29.87,14,2,14,0.00
2015-1-2,32.9,14.4,-0.4,14.0,4.5,-7.5,77,65,41,30.03,29.88,14,2,14,0.11